Time;durP1;ratioP1;P1;durP2;ratioP2;P2;SDS_P1;SDS_P2;PMS_P1;PMS_P2;Temp;Humidity;BMP_temperature;BMP_pressure;BME280_temperature;BME280_humidity;BME280_pressure;Samples;Min_cycle;Max_cycle;Signal;HPM_P1;HPM_P2
2022/12/25 00:01:24;;;;;;;8.50;5.27;;;5.90;99.90;;;;;;8325728;28;20175;-68
2022/12/25 00:05:25;;;;;;;10.30;5.13;;;6.00;99.90;;;;;;8320020;28;20182;-68
2022/12/25 00:09:29;;;;;;;12.17;4.60;;;6.00;99.90;;;;;;8314618;28;20213;-68
2022/12/25 00:13:30;;;;;;;8.13;4.53;;;6.10;99.90;;;;;;8313794;28;20266;-68
2022/12/25 00:17:31;;;;;;;9.00;4.73;;;6.10;99.90;;;;;;8308245;28;20182;-68
2022/12/25 00:21:32;;;;;;;12.47;5.20;;;6.20;99.90;;;;;;8304563;28;20187;-67
2022/12/25 00:25:33;;;;;;;10.97;5.37;;;6.20;99.90;;;;;;8312290;28;20190;-68
2022/12/25 00:29:34;;;;;;;7.57;4.70;;;6.20;99.90;;;;;;8315555;28;20213;-68
2022/12/25 00:33:37;;;;;;;11.23;5.23;;;6.20;99.90;;;;;;8317359;28;20218;-67
2022/12/25 00:37:38;;;;;;;12.27;5.77;;;6.20;99.90;;;;;;8303691;28;20186;-68
2022/12/25 00:46:01;;;;;;;9.03;5.17;;;6.10;99.90;;;;;;8317048;28;20201;-68
2022/12/25 00:50:02;;;;;;;10.30;4.97;;;6.00;99.90;;;;;;8310150;28;20190;-68
2022/12/25 00:54:03;;;;;;;9.83;5.03;;;5.90;99.90;;;;;;8308359;28;20284;-70
2022/12/25 00:58:04;;;;;;;15.57;5.00;;;5.80;99.90;;;;;;8318142;28;20215;-67
2022/12/25 01:02:23;;;;;;;13.17;5.33;;;5.70;99.90;;;;;;8316341;28;20177;-68
2022/12/25 01:06:25;;;;;;;11.57;5.10;;;5.60;99.90;;;;;;8326238;28;20243;-67
2022/12/25 01:10:26;;;;;;;10.20;4.90;;;5.50;99.90;;;;;;8313985;28;20205;-68
2022/12/25 01:14:26;;;;;;;13.93;5.77;;;5.40;99.90;;;;;;8335115;28;20179;-68
2022/12/25 01:18:27;;;;;;;8.13;5.50;;;5.30;99.90;;;;;;8317998;28;20236;-67
2022/12/25 01:22:28;;;;;;;10.50;5.00;;;5.30;99.90;;;;;;8310695;28;20245;-67
2022/12/25 01:26:29;;;;;;;11.27;4.80;;;5.30;99.90;;;;;;8320635;28;20210;-67
2022/12/25 01:30:31;;;;;;;9.83;4.90;;;5.20;99.90;;;;;;8322227;28;20199;-67
2022/12/25 01:34:32;;;;;;;8.90;4.73;;;5.10;99.90;;;;;;8316167;28;20220;-67
2022/12/25 01:38:32;;;;;;;8.27;4.40;;;5.00;99.90;;;;;;8330084;28;20187;-67
2022/12/25 01:42:33;;;;;;;8.53;4.80;;;5.00;99.90;;;;;;8320953;28;20190;-67
2022/12/25 01:46:35;;;;;;;11.47;5.13;;;5.00;99.90;;;;;;8328054;28;20174;-67
2022/12/25 01:50:40;;;;;;;14.10;6.53;;;5.00;99.90;;;;;;8322889;28;20206;-67
2022/12/25 01:54:42;;;;;;;9.30;4.63;;;5.00;99.90;;;;;;8328424;28;20175;-67
2022/12/25 01:58:43;;;;;;;11.47;5.07;;;5.10;99.90;;;;;;8327535;28;20187;-67
2022/12/25 02:02:45;;;;;;;10.60;4.13;;;5.10;99.90;;;;;;8330402;28;20178;-67
2022/12/25 02:06:46;;;;;;;11.50;4.97;;;5.00;99.90;;;;;;8318719;28;20187;-68
2022/12/25 02:10:47;;;;;;;10.93;5.30;;;4.90;99.90;;;;;;8337103;28;20245;-67
2022/12/25 02:14:50;;;;;;;9.57;4.43;;;4.80;99.90;;;;;;8325499;28;20179;-67
2022/12/25 02:18:57;;;;;;;6.03;4.30;;;4.80;99.90;;;;;;8320747;28;20179;-67
2022/12/25 02:23:19;;;;;;;8.67;4.83;;;4.70;99.90;;;;;;8340618;28;20189;-67
2022/12/25 02:27:36;;;;;;;13.23;4.37;;;4.50;99.90;;;;;;8319326;28;20194;-67
2022/12/25 02:31:58;;;;;;;9.07;4.73;;;4.50;99.90;;;;;;8306881;28;20233;-67
2022/12/25 02:36:04;;;;;;;7.00;4.57;;;4.40;99.90;;;;;;8326300;28;20198;-67
2022/12/25 02:40:42;;;;;;;10.70;4.37;;;4.30;99.90;;;;;;8334254;28;20166;-67
2022/12/25 03:06:41;;;;;;;10.80;4.37;;;4.10;99.90;;;;;;8350310;28;20181;-67
2022/12/25 03:28:17;;;;;;;10.67;4.60;;;4.40;99.90;;;;;;8335190;28;20209;-67
2022/12/25 03:32:40;;;;;;;9.90;4.20;;;4.30;99.90;;;;;;8330956;28;20203;-68
2022/12/25 04:38:32;;;;;;;7.07;3.90;;;3.10;99.90;;;;;;8288769;28;20201;-67
2022/12/25 04:42:34;;;;;;;8.80;3.87;;;3.00;99.90;;;;;;8331065;28;20176;-68
2022/12/25 04:46:35;;;;;;;9.37;3.53;;;2.90;99.90;;;;;;8337239;28;20171;-67
2022/12/25 04:50:35;;;;;;;7.53;4.40;;;2.80;99.90;;;;;;8314436;28;20224;-67
2022/12/25 04:54:37;;;;;;;8.87;4.77;;;2.80;99.90;;;;;;8318844;28;20173;-67
2022/12/25 04:58:38;;;;;;;8.77;4.90;;;2.80;99.90;;;;;;8336265;28;20235;-67
2022/12/25 05:02:39;;;;;;;6.60;5.03;;;2.80;99.90;;;;;;8314428;28;20179;-67
2022/12/25 05:06:40;;;;;;;12.67;5.47;;;2.70;99.90;;;;;;8323475;28;20213;-67
2022/12/25 05:10:40;;;;;;;17.07;5.37;;;2.70;99.90;;;;;;8340181;28;20211;-66
2022/12/25 05:14:41;;;;;;;8.73;4.83;;;2.70;99.90;;;;;;8329052;28;20173;-67
2022/12/25 05:18:43;;;;;;;8.10;5.17;;;2.70;99.90;;;;;;8340553;28;20202;-67
2022/12/25 05:22:44;;;;;;;14.20;6.10;;;2.60;99.90;;;;;;8338680;28;20205;-67
2022/12/25 05:26:45;;;;;;;9.87;6.30;;;2.50;99.90;;;;;;8326242;28;20235;-67
2022/12/25 05:30:45;;;;;;;11.47;5.60;;;2.60;99.90;;;;;;8320795;28;20207;-67
2022/12/25 05:34:46;;;;;;;10.53;6.00;;;2.50;99.90;;;;;;8324045;28;20249;-67
2022/12/25 05:38:47;;;;;;;11.53;6.57;;;2.50;99.90;;;;;;8319811;28;20182;-67
2022/12/25 05:42:48;;;;;;;12.10;6.23;;;2.50;99.90;;;;;;8299581;28;20196;-67
2022/12/25 05:46:49;;;;;;;10.23;6.30;;;2.60;99.90;;;;;;8312326;28;20183;-67
2022/12/25 05:50:50;;;;;;;10.97;6.27;;;2.60;99.90;;;;;;8303671;28;20289;-67
2022/12/25 05:54:50;;;;;;;16.50;7.63;;;2.70;99.90;;;;;;8324101;28;20189;-67
2022/12/25 05:58:51;;;;;;;14.37;7.80;;;2.70;99.90;;;;;;8344986;28;20186;-66
2022/12/25 06:02:52;;;;;;;14.43;8.33;;;2.80;99.90;;;;;;8339209;28;20214;-67
2022/12/25 06:06:53;;;;;;;20.10;10.00;;;2.90;99.90;;;;;;8352005;28;20220;-66
2022/12/25 06:10:54;;;;;;;11.47;8.20;;;2.90;99.90;;;;;;8308133;28;20230;-67
2022/12/25 06:14:55;;;;;;;15.07;8.37;;;3.00;99.90;;;;;;8330676;28;20194;-66
2022/12/25 06:18:55;;;;;;;16.07;8.87;;;3.10;99.90;;;;;;8330261;28;20186;-67
2022/12/25 06:22:56;;;;;;;14.53;7.33;;;3.30;99.90;;;;;;8332942;28;20177;-67
2022/12/25 06:26:57;;;;;;;16.57;7.77;;;3.40;99.90;;;;;;8318294;28;20175;-66
2022/12/25 06:30:58;;;;;;;15.83;7.70;;;3.40;99.90;;;;;;8329801;28;20261;-67
2022/12/25 06:34:59;;;;;;;10.40;6.70;;;3.40;99.90;;;;;;8326582;28;20217;-67
2022/12/25 06:39:00;;;;;;;9.77;6.00;;;3.40;99.90;;;;;;8319068;28;20175;-66
2022/12/25 06:43:01;;;;;;;10.23;6.00;;;3.50;99.90;;;;;;8325890;28;20182;-66
2022/12/25 06:47:02;;;;;;;52.20;32.10;;;3.50;99.90;;;;;;8318524;28;20312;-66
2022/12/25 06:51:04;;;;;;;47.10;28.73;;;3.40;99.90;;;;;;8317958;28;20205;-67
2022/12/25 06:55:05;;;;;;;29.10;17.73;;;3.20;99.90;;;;;;8325019;28;20171;-67
2022/12/25 06:59:08;;;;;;;24.50;14.00;;;3.10;99.90;;;;;;8313646;28;20182;-66
2022/12/25 07:03:17;;;;;;;17.50;9.40;;;3.00;99.90;;;;;;8336696;28;20186;-66
2022/12/25 07:07:19;;;;;;;10.73;7.33;;;2.80;99.90;;;;;;8316771;28;20262;-67
2022/12/25 07:11:21;;;;;;;13.07;8.17;;;2.70;99.90;;;;;;8315976;28;20202;-67
2022/12/25 07:15:22;;;;;;;13.00;7.37;;;2.60;99.90;;;;;;8334278;28;20181;-67
2022/12/25 07:19:23;;;;;;;13.37;7.50;;;2.60;99.90;;;;;;8318646;28;20185;-71
2022/12/25 07:23:25;;;;;;;10.50;7.30;;;2.70;99.90;;;;;;8295774;28;20276;-70
2022/12/25 07:27:26;;;;;;;19.27;9.70;;;2.90;99.90;;;;;;8293751;28;20198;-70
2022/12/25 07:31:26;;;;;;;16.13;10.03;;;3.10;99.90;;;;;;8294897;28;20280;-69
2022/12/25 07:35:27;;;;;;;13.73;9.50;;;3.30;99.90;;;;;;8282411;28;20222;-69
2022/12/25 07:39:28;;;;;;;13.77;8.20;;;3.30;99.90;;;;;;8297162;28;20516;-68
2022/12/25 07:43:29;;;;;;;12.30;8.20;;;3.20;99.90;;;;;;8276261;28;20257;-69
2022/12/25 07:47:30;;;;;;;12.57;6.97;;;3.10;99.90;;;;;;8296348;28;20190;-69
2022/12/25 07:51:31;;;;;;;13.27;6.30;;;2.90;99.90;;;;;;8282078;28;20186;-68
2022/12/25 07:55:32;;;;;;;9.47;6.20;;;2.80;99.90;;;;;;8283611;28;20314;-69
2022/12/25 07:59:32;;;;;;;16.47;10.57;;;2.80;99.90;;;;;;8305356;28;20575;-69
2022/12/25 08:03:34;;;;;;;20.80;10.03;;;2.60;99.90;;;;;;8294351;28;20288;-69
2022/12/25 08:07:35;;;;;;;55.83;22.83;;;2.50;99.90;;;;;;8293678;28;20198;-69
2022/12/25 08:11:37;;;;;;;76.23;27.03;;;2.60;99.90;;;;;;8285852;28;20281;-69
2022/12/25 08:15:38;;;;;;;38.27;17.83;;;2.70;99.90;;;;;;8295167;28;20665;-69
2022/12/25 08:19:39;;;;;;;30.57;13.70;;;2.80;99.90;;;;;;8299261;28;20187;-69
2022/12/25 08:23:42;;;;;;;24.60;10.87;;;2.90;99.90;;;;;;8296769;28;20187;-69
2022/12/25 08:27:46;;;;;;;15.17;8.47;;;3.00;99.90;;;;;;8295621;28;20214;-69
2022/12/25 08:31:48;;;;;;;12.17;6.90;;;3.20;99.90;;;;;;8285491;28;20214;-69
2022/12/25 08:35:49;;;;;;;13.43;7.20;;;3.30;99.90;;;;;;8300471;28;20214;-69
2022/12/25 08:39:49;;;;;;;21.33;10.07;;;3.50;99.90;;;;;;8300914;28;20194;-69
2022/12/25 08:43:50;;;;;;;36.33;15.43;;;3.80;99.90;;;;;;8300858;28;20278;-70
2022/12/25 08:47:55;;;;;;;27.00;10.07;;;4.00;99.90;;;;;;8274626;28;20241;-70
2022/12/25 08:51:55;;;;;;;14.93;7.90;;;4.30;99.90;;;;;;8299348;28;20186;-70
2022/12/25 08:56:02;;;;;;;36.23;16.00;;;4.50;99.90;;;;;;8307767;28;20190;-70
2022/12/25 09:00:04;;;;;;;48.53;20.60;;;4.80;99.90;;;;;;8291479;28;20190;-70
2022/12/25 09:04:05;;;;;;;37.43;16.03;;;5.00;99.90;;;;;;8287068;28;20195;-70
2022/12/25 09:08:06;;;;;;;24.30;10.70;;;5.20;99.90;;;;;;8303981;28;20508;-70
2022/12/25 09:12:07;;;;;;;15.97;8.13;;;5.40;99.90;;;;;;8290782;28;20205;-69
2022/12/25 09:16:10;;;;;;;13.00;6.97;;;5.50;99.90;;;;;;8283045;28;20304;-70
2022/12/25 09:20:11;;;;;;;11.10;5.57;;;5.70;99.90;;;;;;8290981;28;20190;-70
2022/12/25 09:24:12;;;;;;;12.03;5.60;;;5.80;99.90;;;;;;8305059;28;20195;-70
2022/12/25 09:28:13;;;;;;;9.27;5.67;;;6.00;99.90;;;;;;8308714;28;20220;-70
2022/12/25 09:32:14;;;;;;;10.33;5.57;;;6.10;99.90;;;;;;8290891;28;20197;-69
2022/12/25 09:36:15;;;;;;;12.63;6.17;;;6.30;99.90;;;;;;8303544;28;20240;-70
2022/12/25 09:40:19;;;;;;;9.80;6.10;;;6.40;99.90;;;;;;8304910;28;20480;-70
2022/12/25 09:44:31;;;;;;;13.03;6.33;;;6.60;99.90;;;;;;8287886;28;20190;-70
2022/12/25 09:48:34;;;;;;;9.40;5.80;;;6.70;99.90;;;;;;8295659;28;20226;-71
2022/12/25 09:52:44;;;;;;;11.60;6.50;;;6.80;99.90;;;;;;8284097;28;20187;-70
2022/12/25 09:56:45;;;;;;;21.37;9.10;;;7.00;99.90;;;;;;8302224;28;20187;-70
2022/12/25 10:00:54;;;;;;;26.07;9.63;;;7.10;99.90;;;;;;8280288;28;20282;-69
2022/12/25 10:05:26;;;;;;;25.43;13.37;;;7.30;99.90;;;;;;8294318;28;20268;-70
2022/12/25 10:09:57;;;;;;;15.73;7.50;;;7.40;99.90;;;;;;8303682;28;20228;-70
2022/12/25 10:14:07;;;;;;;10.30;6.10;;;7.50;99.90;;;;;;8284165;28;20197;-70
2022/12/25 10:18:50;;;;;;;11.73;5.47;;;7.50;99.90;;;;;;8300498;28;20193;-70
2022/12/25 10:22:58;;;;;;;14.80;5.97;;;7.60;99.90;;;;;;8308569;28;20222;-69
2022/12/25 10:27:06;;;;;;;19.37;10.33;;;7.70;99.90;;;;;;8284220;28;20187;-70
2022/12/25 10:31:19;;;;;;;23.03;9.27;;;7.70;99.90;;;;;;8277669;28;20210;-69
2022/12/25 10:35:22;;;;;;;26.80;12.90;;;7.70;99.90;;;;;;8299552;28;20232;-70
2022/12/25 10:39:25;;;;;;;28.93;12.70;;;7.80;99.90;;;;;;8296773;28;20218;-70
2022/12/25 10:43:37;;;;;;;24.27;11.63;;;7.90;99.90;;;;;;8302291;28;20211;-70
2022/12/25 10:47:43;;;;;;;36.90;14.93;;;8.10;99.90;;;;;;8297780;28;20238;-70
2022/12/25 10:51:43;;;;;;;31.00;17.53;;;8.20;99.90;;;;;;8284392;28;20186;-70
2022/12/25 10:56:01;;;;;;;34.43;19.80;;;8.20;99.90;;;;;;8278258;28;20266;-70
2022/12/25 11:00:04;;;;;;;38.10;20.50;;;8.40;99.90;;;;;;8278747;28;20193;-70
2022/12/25 11:04:05;;;;;;;24.27;9.97;;;8.50;99.90;;;;;;8298306;28;20207;-70
2022/12/25 11:08:19;;;;;;;21.73;9.03;;;8.60;99.90;;;;;;8296304;28;20220;-70
2022/12/25 11:12:35;;;;;;;16.90;9.30;;;8.60;99.90;;;;;;8280450;28;20190;-70
2022/12/25 11:16:38;;;;;;;17.53;9.17;;;8.50;99.90;;;;;;8298241;28;20199;-70
2022/12/25 11:20:47;;;;;;;14.33;7.93;;;8.60;99.90;;;;;;8303786;28;20639;-69
2022/12/25 11:24:48;;;;;;;12.77;6.77;;;8.70;99.90;;;;;;8296628;28;20204;-70
2022/12/25 11:28:51;;;;;;;15.27;6.93;;;8.80;99.90;;;;;;8297394;28;20213;-70
2022/12/25 11:32:55;;;;;;;14.80;6.63;;;8.90;99.90;;;;;;8298676;28;20306;-70
2022/12/25 11:36:58;;;;;;;15.40;5.70;;;9.00;99.90;;;;;;8282022;28;20211;-69
2022/12/25 11:41:02;;;;;;;12.53;5.67;;;9.10;99.90;;;;;;8280371;28;20195;-70
2022/12/25 11:45:16;;;;;;;11.83;5.00;;;9.20;99.90;;;;;;8301283;28;20197;-71
2022/12/25 11:49:20;;;;;;;10.40;4.90;;;9.30;99.90;;;;;;8300621;28;20592;-72
2022/12/25 11:53:52;;;;;;;10.67;5.30;;;9.40;99.90;;;;;;8289166;28;20216;-72
2022/12/25 11:57:59;;;;;;;10.90;5.77;;;9.50;93.60;;;;;;8298220;28;20189;-71
2022/12/25 12:02:11;;;;;;;12.70;5.60;;;9.70;91.90;;;;;;8295676;28;20500;-72
2022/12/25 12:06:18;;;;;;;10.40;5.83;;;9.80;19.30;;;;;;8281489;28;20255;-72
2022/12/25 12:10:36;;;;;;;12.10;5.70;;;9.90;1.00;;;;;;8282675;28;20291;-71
2022/12/25 12:15:10;;;;;;;17.00;7.77;;;10.00;1.00;;;;;;8295445;28;20265;-69
2022/12/25 12:19:26;;;;;;;13.83;8.60;;;10.20;99.90;;;;;;8297223;28;20197;-70
2022/12/25 12:23:29;;;;;;;25.40;15.37;;;10.20;99.90;;;;;;8296527;28;20199;-71
2022/12/25 12:27:39;;;;;;;17.70;10.03;;;10.20;99.90;;;;;;8300520;28;20190;-71
2022/12/25 12:31:44;;;;;;;19.50;10.10;;;10.20;99.90;;;;;;8296164;28;20210;-70
2022/12/25 12:35:45;;;;;;;16.87;7.07;;;10.20;99.90;;;;;;8286563;28;20225;-70
2022/12/25 12:39:52;;;;;;;17.73;10.70;;;10.10;99.90;;;;;;8279059;28;20426;-70
2022/12/25 12:44:04;;;;;;;12.63;7.47;;;10.00;99.90;;;;;;8299713;28;20187;-70
2022/12/25 12:48:15;;;;;;;13.47;6.93;;;9.90;99.90;;;;;;8295640;28;20218;-70
2022/12/25 12:52:37;;;;;;;12.00;6.67;;;9.80;99.90;;;;;;8284645;28;20343;-70
2022/12/25 12:56:38;;;;;;;12.57;6.77;;;9.70;99.90;;;;;;8289814;28;20192;-70
2022/12/25 13:01:02;;;;;;;19.10;9.17;;;9.60;99.90;;;;;;8281315;28;20194;-70
2022/12/25 13:05:36;;;;;;;16.03;8.60;;;9.50;99.90;;;;;;8286139;28;20193;-70
2022/12/25 13:09:52;;;;;;;16.33;9.17;;;9.50;99.90;;;;;;8274058;28;20573;-70
2022/12/25 13:13:55;;;;;;;11.13;6.50;;;9.60;99.90;;;;;;8293424;28;20185;-70
2022/12/25 13:18:04;;;;;;;22.00;11.50;;;9.80;99.90;;;;;;8296680;28;20194;-70
2022/12/25 13:22:06;;;;;;;37.33;18.37;;;9.80;99.90;;;;;;8293781;28;20213;-69
2022/12/25 13:26:17;;;;;;;112.53;40.80;;;9.80;99.90;;;;;;8295139;28;20194;-69
2022/12/25 13:30:19;;;;;;;79.33;29.50;;;9.80;99.90;;;;;;8276237;28;20297;-69
2022/12/25 13:34:30;;;;;;;27.63;13.37;;;9.70;99.90;;;;;;8296069;28;20221;-69
2022/12/25 13:38:31;;;;;;;58.50;23.20;;;9.50;99.90;;;;;;8298727;28;20194;-70
2022/12/25 13:42:35;;;;;;;39.53;15.17;;;9.30;99.90;;;;;;8306319;28;20509;-69
2022/12/25 13:46:36;;;;;;;38.27;14.93;;;9.10;99.90;;;;;;8301957;28;20193;-69
2022/12/25 13:50:37;;;;;;;41.80;18.83;;;9.00;99.90;;;;;;8285107;28;20333;-70
2022/12/25 13:54:38;;;;;;;33.03;17.77;;;8.90;1.00;;;;;;8298224;28;20200;-70
2022/12/25 13:58:39;;;;;;;90.57;48.77;;;8.90;1.00;;;;;;8285210;28;20193;-70
2022/12/25 14:02:40;;;;;;;46.60;26.50;;;8.80;1.00;;;;;;8302978;28;20330;-70
2022/12/25 14:06:41;;;;;;;31.73;17.53;;;8.70;1.00;;;;;;8298487;28;20188;-69
2022/12/25 14:10:47;;;;;;;13.80;9.73;;;8.50;1.00;;;;;;8298541;28;20222;-69
2022/12/25 14:14:49;;;;;;;11.87;6.77;;;8.40;28.30;;;;;;8299640;28;20189;-69
2022/12/25 14:19:00;;;;;;;9.90;6.53;;;8.20;99.90;;;;;;8301684;28;20261;-69
2022/12/25 14:23:01;;;;;;;10.30;6.97;;;8.10;99.90;;;;;;8282989;28;20290;-69
2022/12/25 14:27:05;;;;;;;15.13;7.90;;;8.00;99.90;;;;;;8301740;28;20203;-69
2022/12/25 14:31:10;;;;;;;16.50;9.77;;;7.90;99.90;;;;;;8298657;28;20208;-69
2022/12/25 14:35:11;;;;;;;16.23;10.37;;;7.80;1.00;;;;;;8286498;28;20211;-69
2022/12/25 14:39:32;;;;;;;132.37;53.73;;;7.70;1.00;;;;;;8281755;28;20194;-69
2022/12/25 14:43:35;;;;;;;137.93;55.40;;;7.60;15.00;;;;;;8299618;28;20202;-69
2022/12/25 14:47:54;;;;;;;97.80;41.87;;;7.50;99.90;;;;;;8303842;28;20271;-69
2022/12/25 14:51:55;;;;;;;64.63;31.17;;;7.50;99.90;;;;;;8297700;28;20195;-69
2022/12/25 14:55:55;;;;;;;53.73;23.27;;;7.40;99.90;;;;;;8280070;28;20187;-69
2022/12/25 15:00:00;;;;;;;50.67;22.50;;;7.30;99.90;;;;;;8276387;28;20274;-69
2022/12/25 15:04:10;;;;;;;41.97;18.93;;;7.20;1.00;;;;;;8281850;28;20297;-69
2022/12/25 15:08:11;;;;;;;26.20;12.97;;;7.10;1.00;;;;;;8279546;28;20215;-69
2022/12/25 15:12:12;;;;;;;20.53;9.97;;;7.10;16.70;;;;;;8295747;28;20190;-69
2022/12/25 15:16:20;;;;;;;13.73;7.87;;;7.00;99.90;;;;;;8298283;28;20213;-70
2022/12/25 15:20:27;;;;;;;16.87;10.23;;;6.90;99.90;;;;;;8312593;28;20197;-69
2022/12/25 15:24:28;;;;;;;20.00;12.67;;;6.90;1.00;;;;;;8312668;28;20199;-69
2022/12/25 15:28:29;;;;;;;17.07;11.93;;;6.80;1.00;;;;;;8311901;28;20210;-68
2022/12/25 15:32:30;;;;;;;17.93;12.50;;;6.80;99.90;;;;;;8311866;28;20206;-68
2022/12/25 15:36:32;;;;;;;13.10;8.60;;;6.70;99.90;;;;;;8309161;28;20194;-68
2022/12/25 15:40:33;;;;;;;10.63;6.83;;;6.60;99.90;;;;;;8309776;28;20198;-68
2022/12/25 15:44:36;;;;;;;11.60;7.10;;;6.50;1.00;;;;;;8310974;28;20190;-68
2022/12/25 15:48:37;;;;;;;13.93;9.73;;;6.40;99.90;;;;;;8324460;28;20219;-68
2022/12/25 15:52:38;;;;;;;13.27;8.73;;;6.40;62.70;;;;;;8303298;28;20638;-68
2022/12/25 15:56:45;;;;;;;16.57;10.17;;;6.30;99.90;;;;;;8301323;28;20207;-68
2022/12/25 16:00:46;;;;;;;16.63;11.07;;;6.30;99.90;;;;;;8327207;28;20215;-68
2022/12/25 16:04:49;;;;;;;16.57;11.90;;;6.30;1.00;;;;;;8310103;28;20254;-68
2022/12/25 16:08:50;;;;;;;35.00;21.67;;;6.30;1.00;;;;;;8319801;28;20202;-68
2022/12/25 16:12:51;;;;;;;30.43;20.10;;;6.30;99.90;;;;;;8315410;28;20179;-68
2022/12/25 16:16:52;;;;;;;35.10;23.50;;;6.30;1.00;;;;;;8316960;28;20328;-68
2022/12/25 16:20:53;;;;;;;38.30;24.33;;;6.20;99.90;;;;;;8310628;28;20276;-68
2022/12/25 16:24:54;;;;;;;31.87;18.83;;;6.20;99.90;;;;;;8308486;28;20205;-67
2022/12/25 16:28:55;;;;;;;30.20;20.70;;;6.20;99.90;;;;;;8324875;28;20353;-67
2022/12/25 16:32:56;;;;;;;22.27;15.97;;;6.20;99.90;;;;;;8309418;28;20210;-68
2022/12/25 16:36:57;;;;;;;16.73;11.73;;;6.20;99.90;;;;;;8313852;28;20194;-68
2022/12/25 16:41:00;;;;;;;23.83;13.03;;;6.10;99.90;;;;;;8294446;28;20183;-67
2022/12/25 16:45:02;;;;;;;21.80;11.47;;;6.10;1.00;;;;;;8308410;28;20222;-68
2022/12/25 16:49:03;;;;;;;21.90;11.13;;;6.10;71.80;;;;;;8322870;28;20294;-68
2022/12/25 16:53:04;;;;;;;42.90;22.93;;;6.10;99.90;;;;;;8320446;28;20257;-68
2022/12/25 16:57:05;;;;;;;168.20;89.47;;;6.10;99.90;;;;;;8319534;28;20190;-68
2022/12/25 17:01:07;;;;;;;86.93;51.37;;;6.20;99.90;;;;;;8309089;28;20381;-68
2022/12/25 17:05:09;;;;;;;81.40;45.93;;;6.20;99.90;;;;;;8302345;28;20186;-68
2022/12/25 17:09:10;;;;;;;87.43;50.27;;;6.20;99.90;;;;;;8299356;28;20211;-68
2022/12/25 17:13:10;;;;;;;72.80;42.83;;;6.30;99.90;;;;;;8309008;28;20626;-68
2022/12/25 17:17:11;;;;;;;44.57;26.10;;;6.30;99.90;;;;;;8322111;28;20183;-68
2022/12/25 17:21:16;;;;;;;31.03;18.57;;;6.30;1.00;;;;;;8310110;28;20190;-68
2022/12/25 17:25:17;;;;;;;33.27;18.97;;;6.40;1.00;;;;;;8307110;28;20616;-68
2022/12/25 17:29:18;;;;;;;36.53;21.47;;;6.40;1.00;;;;;;8313158;28;20546;-68
2022/12/25 17:33:19;;;;;;;39.40;24.47;;;6.40;99.90;;;;;;8322816;28;20286;-68
2022/12/25 17:37:20;;;;;;;25.50;16.07;;;6.40;99.90;;;;;;8330433;28;20213;-68
2022/12/25 17:41:21;;;;;;;27.60;16.23;;;6.40;99.90;;;;;;8324629;28;20248;-68
2022/12/25 17:45:22;;;;;;;23.13;14.37;;;6.50;99.90;;;;;;8291378;28;20281;-67
2022/12/25 17:49:23;;;;;;;24.03;14.53;;;6.50;99.90;;;;;;8309194;28;20218;-67
2022/12/25 17:53:24;;;;;;;18.73;11.83;;;6.50;99.90;;;;;;8325107;28;20198;-67
2022/12/25 17:57:24;;;;;;;20.90;12.47;;;6.40;99.90;;;;;;8318905;28;20183;-67
2022/12/25 18:01:27;;;;;;;24.30;13.93;;;6.40;99.90;;;;;;8324494;28;20187;-67
2022/12/25 18:05:28;;;;;;;20.50;13.37;;;6.40;1.00;;;;;;8307764;28;20193;-67
2022/12/25 18:09:29;;;;;;;19.90;12.90;;;6.40;1.00;;;;;;8306980;28;20256;-67
2022/12/25 18:13:31;;;;;;;24.17;13.60;;;6.40;38.60;;;;;;8330730;28;20186;-68
2022/12/25 18:17:32;;;;;;;23.87;12.87;;;6.40;99.90;;;;;;8301228;28;20191;-67
2022/12/25 18:21:33;;;;;;;20.63;13.17;;;6.40;99.90;;;;;;8325448;28;20186;-67
2022/12/25 18:25:38;;;;;;;23.33;14.47;;;6.40;99.90;;;;;;8315679;28;20278;-68
2022/12/25 18:29:39;;;;;;;22.20;12.67;;;6.40;99.90;;;;;;8312990;28;20206;-67
2022/12/25 18:33:40;;;;;;;19.57;11.50;;;6.40;99.90;;;;;;8313836;28;20214;-68
2022/12/25 18:37:41;;;;;;;19.77;11.63;;;6.40;99.90;;;;;;8310117;28;20183;-67
2022/12/25 18:46:04;;;;;;;100.33;46.63;;;6.50;99.90;;;;;;8328020;28;20229;-67
2022/12/25 18:50:07;;;;;;;183.73;83.47;;;6.60;99.90;;;;;;8307496;28;20198;-67
2022/12/25 18:54:08;;;;;;;201.30;86.93;;;6.60;99.90;;;;;;8306154;28;20198;-67
2022/12/25 18:58:10;;;;;;;125.03;54.20;;;6.70;99.90;;;;;;8326604;28;20189;-67
2022/12/25 19:02:14;;;;;;;87.70;49.30;;;6.70;99.90;;;;;;8317413;28;20179;-67
2022/12/25 19:06:20;;;;;;;44.43;25.83;;;6.70;99.90;;;;;;8313864;28;20178;-67
2022/12/25 19:10:21;;;;;;;32.00;17.63;;;6.60;99.90;;;;;;8310533;28;20206;-67
2022/12/25 19:14:23;;;;;;;30.37;17.70;;;6.60;99.90;;;;;;8315691;28;20217;-67
2022/12/25 19:18:23;;;;;;;27.87;17.87;;;6.60;99.90;;;;;;8311821;28;20191;-67
2022/12/25 19:22:25;;;;;;;28.20;16.43;;;6.60;99.90;;;;;;8305752;28;20183;-67
2022/12/25 19:26:25;;;;;;;31.00;15.40;;;6.50;99.90;;;;;;8314465;28;20190;-67
2022/12/25 19:30:26;;;;;;;22.87;13.00;;;6.60;99.90;;;;;;8312317;28;20291;-67
2022/12/25 19:34:29;;;;;;;29.80;15.87;;;6.60;99.90;;;;;;8313554;28;20360;-67
2022/12/25 19:38:30;;;;;;;19.47;12.30;;;6.60;99.90;;;;;;8311809;28;20241;-66
2022/12/25 19:42:31;;;;;;;25.07;13.50;;;6.60;99.90;;;;;;8305453;28;20191;-67
2022/12/25 19:46:36;;;;;;;24.60;13.77;;;6.60;99.90;;;;;;8310831;28;20187;-66
2022/12/25 19:50:37;;;;;;;38.00;17.77;;;6.60;99.90;;;;;;8310049;28;20210;-66
2022/12/25 19:54:38;;;;;;;26.93;17.43;;;6.60;99.90;;;;;;8310824;28;20264;-66
2022/12/25 19:58:39;;;;;;;119.30;66.07;;;6.70;99.90;;;;;;8338551;28;20182;-66
2022/12/25 20:02:40;;;;;;;117.57;63.27;;;6.70;99.90;;;;;;8304299;28;20199;-66
2022/12/25 20:06:41;;;;;;;102.17;54.00;;;6.70;99.90;;;;;;8315326;28;20274;-66
2022/12/25 20:10:43;;;;;;;40.43;22.97;;;6.70;99.90;;;;;;8314230;28;20214;-66
2022/12/25 20:14:44;;;;;;;32.07;20.07;;;6.70;99.90;;;;;;8324185;28;20226;-66
2022/12/25 20:18:45;;;;;;;34.87;19.07;;;6.70;99.90;;;;;;8303721;28;20244;-66
2022/12/25 20:22:46;;;;;;;22.93;15.90;;;6.70;99.90;;;;;;8319754;28;20239;-66
2022/12/25 20:26:47;;;;;;;33.30;18.87;;;6.70;99.90;;;;;;8312589;28;20277;-66
2022/12/25 20:30:48;;;;;;;30.63;19.60;;;6.70;99.90;;;;;;8311164;28;20207;-67
2022/12/25 20:34:50;;;;;;;37.67;21.73;;;6.70;99.90;;;;;;8305805;28;20210;-67
2022/12/25 20:38:51;;;;;;;61.57;37.40;;;6.70;99.90;;;;;;8305050;28;20186;-66
2022/12/25 20:42:52;;;;;;;249.47;88.10;;;6.70;99.90;;;;;;8319232;28;20174;-67
2022/12/25 20:46:58;;;;;;;293.57;103.27;;;6.70;99.90;;;;;;8333958;28;20237;-67
2022/12/25 20:51:12;;;;;;;220.67;77.70;;;6.70;99.90;;;;;;8340627;28;20218;-67
2022/12/25 20:55:13;;;;;;;144.93;55.53;;;6.70;99.90;;;;;;8314223;28;20182;-67
2022/12/25 20:59:13;;;;;;;63.77;30.53;;;6.70;99.90;;;;;;8310546;28;20194;-67
2022/12/25 21:03:14;;;;;;;38.73;18.47;;;6.70;99.90;;;;;;8314246;28;20182;-67
2022/12/25 21:07:17;;;;;;;28.33;15.47;;;6.70;99.90;;;;;;8305183;28;20175;-67
2022/12/25 21:11:20;;;;;;;40.40;21.50;;;6.80;99.90;;;;;;8285999;28;20289;-67
2022/12/25 21:15:21;;;;;;;29.20;17.70;;;6.80;99.90;;;;;;8315998;28;20187;-67
2022/12/25 21:19:22;;;;;;;61.63;30.77;;;6.80;99.90;;;;;;8311576;28;20178;-67
2022/12/25 21:23:25;;;;;;;58.30;29.83;;;6.80;99.90;;;;;;8324233;28;20269;-67
2022/12/25 21:27:28;;;;;;;37.90;19.13;;;6.80;99.90;;;;;;8316725;28;20188;-67
2022/12/25 21:33:50;;;;;;;30.07;15.77;;;6.80;99.90;;;;;;8313364;28;20289;-67
2022/12/25 21:35:51;;;;;;;24.13;12.60;;;6.80;99.90;;;;;;8324906;28;20221;-67
2022/12/25 21:39:52;;;;;;;17.73;12.40;;;6.80;99.90;;;;;;8310558;28;20179;-67
2022/12/25 21:43:54;;;;;;;18.07;11.23;;;6.70;99.90;;;;;;8314409;28;20179;-67
2022/12/25 21:47:55;;;;;;;18.17;12.70;;;6.70;99.90;;;;;;8321326;28;20187;-67
2022/12/25 21:52:08;;;;;;;25.70;14.63;;;6.70;99.90;;;;;;8309912;28;20194;-67
2022/12/25 21:56:09;;;;;;;25.53;15.23;;;6.70;99.90;;;;;;8295911;28;20194;-67
2022/12/25 22:00:10;;;;;;;37.77;20.83;;;6.70;99.90;;;;;;8321203;28;20240;-67
2022/12/25 22:04:13;;;;;;;37.97;20.07;;;6.70;99.90;;;;;;8323288;28;20241;-67
2022/12/25 22:08:14;;;;;;;43.03;24.30;;;6.70;99.90;;;;;;8331645;28;20189;-67
2022/12/25 22:20:56;;;;;;;27.13;17.57;;;6.80;99.90;;;;;;8340753;28;20194;-67
2022/12/25 22:25:00;;;;;;;25.83;14.50;;;6.70;99.90;;;;;;8319713;28;20246;-67
2022/12/25 22:29:02;;;;;;;23.93;12.53;;;6.70;99.90;;;;;;8324372;28;20198;-67
2022/12/25 22:33:03;;;;;;;19.60;12.63;;;6.70;99.90;;;;;;8330368;28;20202;-67
2022/12/25 22:37:06;;;;;;;18.10;12.17;;;6.70;99.90;;;;;;8325159;28;20255;-66
2022/12/25 22:41:07;;;;;;;25.53;16.63;;;6.70;99.90;;;;;;8312536;28;20202;-67
2022/12/25 22:45:09;;;;;;;22.80;16.37;;;6.70;99.90;;;;;;8318303;28;20190;-66
2022/12/25 22:49:10;;;;;;;23.60;15.10;;;6.70;99.90;;;;;;8325821;28;20214;-67
2022/12/25 22:53:11;;;;;;;21.97;13.90;;;6.70;99.90;;;;;;8329983;28;20176;-67
2022/12/25 22:57:12;;;;;;;21.20;13.27;;;6.70;99.90;;;;;;8318301;28;20274;-67
2022/12/25 23:01:13;;;;;;;19.43;12.47;;;6.70;99.90;;;;;;8310407;28;20194;-67